sensor_id;sensor_type;location;lat;lon;timestamp;pressure;altitude;pressure_sealevel;temperature
11321;BMP180;5715;48.234;14.320;2023-07-02T00:00:27;97789.00;;;24.20
11321;BMP180;5715;48.234;14.320;2023-07-02T00:03:14;97787.00;;;24.30
11321;BMP180;5715;48.234;14.320;2023-07-02T00:06:02;97784.00;;;24.40
11321;BMP180;5715;48.234;14.320;2023-07-02T00:08:49;97779.00;;;24.40
11321;BMP180;5715;48.234;14.320;2023-07-02T00:11:39;97777.00;;;24.50
11321;BMP180;5715;48.234;14.320;2023-07-02T00:14:26;97783.00;;;24.60
11321;BMP180;5715;48.234;14.320;2023-07-02T00:17:14;97780.00;;;24.50
11321;BMP180;5715;48.234;14.320;2023-07-02T00:20:02;97785.00;;;24.60
11321;BMP180;5715;48.234;14.320;2023-07-02T00:22:56;97787.00;;;24.70
11321;BMP180;5715;48.234;14.320;2023-07-02T00:25:43;97789.00;;;24.70
11321;BMP180;5715;48.234;14.320;2023-07-02T00:28:31;97796.00;;;24.70
11321;BMP180;5715;48.234;14.320;2023-07-02T00:31:19;97791.00;;;24.70
11321;BMP180;5715;48.234;14.320;2023-07-02T00:34:06;97782.00;;;24.70
11321;BMP180;5715;48.234;14.320;2023-07-02T00:36:54;97793.00;;;24.70
11321;BMP180;5715;48.234;14.320;2023-07-02T00:39:42;97786.00;;;24.60
11321;BMP180;5715;48.234;14.320;2023-07-02T00:42:29;97793.00;;;24.60
11321;BMP180;5715;48.234;14.320;2023-07-02T00:45:17;97795.00;;;24.50
11321;BMP180;5715;48.234;14.320;2023-07-02T00:48:06;97795.00;;;24.70
11321;BMP180;5715;48.234;14.320;2023-07-02T00:50:53;97796.00;;;24.80
11321;BMP180;5715;48.234;14.320;2023-07-02T00:53:42;97803.00;;;24.80
11321;BMP180;5715;48.234;14.320;2023-07-02T00:56:32;97803.00;;;24.90
11321;BMP180;5715;48.234;14.320;2023-07-02T00:59:19;97802.00;;;24.90
11321;BMP180;5715;48.234;14.320;2023-07-02T01:02:07;97804.00;;;24.90
11321;BMP180;5715;48.234;14.320;2023-07-02T01:04:55;97801.00;;;25.00
11321;BMP180;5715;48.234;14.320;2023-07-02T01:07:48;97809.00;;;25.00
11321;BMP180;5715;48.234;14.320;2023-07-02T01:10:37;97807.00;;;25.10
11321;BMP180;5715;48.234;14.320;2023-07-02T01:13:25;97804.00;;;25.10
11321;BMP180;5715;48.234;14.320;2023-07-02T01:16:13;97805.00;;;25.10
11321;BMP180;5715;48.234;14.320;2023-07-02T01:19:18;97812.00;;;25.20
11321;BMP180;5715;48.234;14.320;2023-07-02T01:22:07;97814.00;;;25.10
11321;BMP180;5715;48.234;14.320;2023-07-02T01:24:58;97814.00;;;25.00
11321;BMP180;5715;48.234;14.320;2023-07-02T01:27:45;97818.00;;;25.10
11321;BMP180;5715;48.234;14.320;2023-07-02T01:30:34;97817.00;;;25.00
11321;BMP180;5715;48.234;14.320;2023-07-02T01:33:21;97823.00;;;24.90
11321;BMP180;5715;48.234;14.320;2023-07-02T01:36:09;97821.00;;;24.90
11321;BMP180;5715;48.234;14.320;2023-07-02T01:38:56;97824.00;;;25.00
11321;BMP180;5715;48.234;14.320;2023-07-02T01:42:06;97820.00;;;24.90
11321;BMP180;5715;48.234;14.320;2023-07-02T01:44:53;97831.00;;;24.90
11321;BMP180;5715;48.234;14.320;2023-07-02T01:47:41;97830.00;;;25.20
11321;BMP180;5715;48.234;14.320;2023-07-02T01:50:29;97836.00;;;25.30
11321;BMP180;5715;48.234;14.320;2023-07-02T01:53:16;97842.00;;;24.50
11321;BMP180;5715;48.234;14.320;2023-07-02T01:56:04;97838.00;;;24.90
11321;BMP180;5715;48.234;14.320;2023-07-02T01:58:51;97844.00;;;25.00
11321;BMP180;5715;48.234;14.320;2023-07-02T02:01:40;97846.00;;;24.70
11321;BMP180;5715;48.234;14.320;2023-07-02T02:04:28;97847.00;;;25.30
11321;BMP180;5715;48.234;14.320;2023-07-02T02:07:16;97847.00;;;25.40
11321;BMP180;5715;48.234;14.320;2023-07-02T02:10:04;97852.00;;;25.30
11321;BMP180;5715;48.234;14.320;2023-07-02T02:12:53;97855.00;;;25.30
11321;BMP180;5715;48.234;14.320;2023-07-02T02:15:40;97863.00;;;25.20
11321;BMP180;5715;48.234;14.320;2023-07-02T02:18:28;97867.00;;;25.20
11321;BMP180;5715;48.234;14.320;2023-07-02T02:21:16;97868.00;;;25.10
11321;BMP180;5715;48.234;14.320;2023-07-02T02:24:05;97869.00;;;25.10
11321;BMP180;5715;48.234;14.320;2023-07-02T02:26:53;97869.00;;;24.80
11321;BMP180;5715;48.234;14.320;2023-07-02T02:29:41;97866.00;;;25.10
11321;BMP180;5715;48.234;14.320;2023-07-02T02:32:28;97875.00;;;25.10
11321;BMP180;5715;48.234;14.320;2023-07-02T02:35:16;97870.00;;;24.90
11321;BMP180;5715;48.234;14.320;2023-07-02T02:38:04;97870.00;;;25.40
11321;BMP180;5715;48.234;14.320;2023-07-02T02:40:52;97870.00;;;25.10
11321;BMP180;5715;48.234;14.320;2023-07-02T02:43:42;97873.00;;;24.80
11321;BMP180;5715;48.234;14.320;2023-07-02T02:46:31;97884.00;;;24.90
11321;BMP180;5715;48.234;14.320;2023-07-02T02:49:19;97883.00;;;25.20
11321;BMP180;5715;48.234;14.320;2023-07-02T02:52:06;97886.00;;;24.90
11321;BMP180;5715;48.234;14.320;2023-07-02T02:54:54;97875.00;;;25.00
11321;BMP180;5715;48.234;14.320;2023-07-02T02:57:41;97884.00;;;25.20
11321;BMP180;5715;48.234;14.320;2023-07-02T03:00:30;97876.00;;;24.90
11321;BMP180;5715;48.234;14.320;2023-07-02T03:03:18;97878.00;;;24.80
11321;BMP180;5715;48.234;14.320;2023-07-02T03:06:07;97885.00;;;24.90
11321;BMP180;5715;48.234;14.320;2023-07-02T03:08:55;97893.00;;;25.00
11321;BMP180;5715;48.234;14.320;2023-07-02T03:11:43;97888.00;;;25.00
11321;BMP180;5715;48.234;14.320;2023-07-02T03:14:30;97891.00;;;25.20
11321;BMP180;5715;48.234;14.320;2023-07-02T03:17:19;97893.00;;;25.00
11321;BMP180;5715;48.234;14.320;2023-07-02T03:20:07;97898.00;;;25.10
11321;BMP180;5715;48.234;14.320;2023-07-02T03:22:55;97895.00;;;25.00
11321;BMP180;5715;48.234;14.320;2023-07-02T03:25:43;97903.00;;;24.90
11321;BMP180;5715;48.234;14.320;2023-07-02T03:28:30;97903.00;;;24.80
11321;BMP180;5715;48.234;14.320;2023-07-02T03:31:20;97910.00;;;25.00
11321;BMP180;5715;48.234;14.320;2023-07-02T03:34:10;97912.00;;;25.00
11321;BMP180;5715;48.234;14.320;2023-07-02T03:36:57;97912.00;;;24.90
11321;BMP180;5715;48.234;14.320;2023-07-02T03:39:45;97910.00;;;24.50
11321;BMP180;5715;48.234;14.320;2023-07-02T03:42:33;97906.00;;;24.30
11321;BMP180;5715;48.234;14.320;2023-07-02T03:45:21;97909.00;;;24.70
11321;BMP180;5715;48.234;14.320;2023-07-02T03:48:09;97907.00;;;24.80
11321;BMP180;5715;48.234;14.320;2023-07-02T03:50:56;97908.00;;;24.50
11321;BMP180;5715;48.234;14.320;2023-07-02T03:53:44;97912.00;;;25.00
11321;BMP180;5715;48.234;14.320;2023-07-02T03:56:31;97914.00;;;24.80
11321;BMP180;5715;48.234;14.320;2023-07-02T03:59:19;97913.00;;;25.00
11321;BMP180;5715;48.234;14.320;2023-07-02T04:02:06;97926.00;;;25.20
11321;BMP180;5715;48.234;14.320;2023-07-02T04:04:54;97925.00;;;25.20
11321;BMP180;5715;48.234;14.320;2023-07-02T04:07:41;97920.00;;;25.30
11321;BMP180;5715;48.234;14.320;2023-07-02T04:10:29;97921.00;;;25.40
11321;BMP180;5715;48.234;14.320;2023-07-02T04:13:17;97922.00;;;25.10
11321;BMP180;5715;48.234;14.320;2023-07-02T04:16:05;97922.00;;;25.40
11321;BMP180;5715;48.234;14.320;2023-07-02T04:18:53;97925.00;;;25.50
11321;BMP180;5715;48.234;14.320;2023-07-02T04:21:40;97931.00;;;25.60
11321;BMP180;5715;48.234;14.320;2023-07-02T04:24:28;97936.00;;;25.60
11321;BMP180;5715;48.234;14.320;2023-07-02T04:27:16;97936.00;;;25.70
11321;BMP180;5715;48.234;14.320;2023-07-02T04:30:25;97944.00;;;25.50
11321;BMP180;5715;48.234;14.320;2023-07-02T04:33:12;97947.00;;;25.60
11321;BMP180;5715;48.234;14.320;2023-07-02T04:36:03;97951.00;;;25.70
11321;BMP180;5715;48.234;14.320;2023-07-02T04:38:51;97957.00;;;25.90
11321;BMP180;5715;48.234;14.320;2023-07-02T04:41:38;97952.00;;;25.70
11321;BMP180;5715;48.234;14.320;2023-07-02T04:44:26;97961.00;;;25.90
11321;BMP180;5715;48.234;14.320;2023-07-02T04:47:19;97958.00;;;25.50
11321;BMP180;5715;48.234;14.320;2023-07-02T04:50:07;97952.00;;;26.00
11321;BMP180;5715;48.234;14.320;2023-07-02T04:52:55;97955.00;;;25.90
11321;BMP180;5715;48.234;14.320;2023-07-02T04:55:44;97961.00;;;26.30
11321;BMP180;5715;48.234;14.320;2023-07-02T04:58:31;97966.00;;;26.00
11321;BMP180;5715;48.234;14.320;2023-07-02T05:01:19;97970.00;;;26.00
11321;BMP180;5715;48.234;14.320;2023-07-02T05:04:09;97974.00;;;26.30
11321;BMP180;5715;48.234;14.320;2023-07-02T05:06:57;97971.00;;;26.20
11321;BMP180;5715;48.234;14.320;2023-07-02T05:09:45;97967.00;;;26.10
11321;BMP180;5715;48.234;14.320;2023-07-02T05:12:32;97968.00;;;26.50
11321;BMP180;5715;48.234;14.320;2023-07-02T05:15:20;97974.00;;;27.30
11321;BMP180;5715;48.234;14.320;2023-07-02T05:18:07;97976.00;;;27.40
11321;BMP180;5715;48.234;14.320;2023-07-02T05:20:55;97983.00;;;28.20
11321;BMP180;5715;48.234;14.320;2023-07-02T05:23:42;97983.00;;;29.60
11321;BMP180;5715;48.234;14.320;2023-07-02T05:26:30;97989.00;;;28.80
11321;BMP180;5715;48.234;14.320;2023-07-02T05:29:19;97986.00;;;29.90
11321;BMP180;5715;48.234;14.320;2023-07-02T05:32:07;97987.00;;;29.20
11321;BMP180;5715;48.234;14.320;2023-07-02T05:34:54;97990.00;;;28.80
11321;BMP180;5715;48.234;14.320;2023-07-02T05:37:42;97990.00;;;28.10
11321;BMP180;5715;48.234;14.320;2023-07-02T05:40:30;97986.00;;;27.80
11321;BMP180;5715;48.234;14.320;2023-07-02T05:43:18;97983.00;;;27.70
11321;BMP180;5715;48.234;14.320;2023-07-02T05:46:06;97992.00;;;27.60
11321;BMP180;5715;48.234;14.320;2023-07-02T05:48:53;97989.00;;;27.10
11321;BMP180;5715;48.234;14.320;2023-07-02T05:51:44;97990.00;;;26.90
11321;BMP180;5715;48.234;14.320;2023-07-02T05:54:32;97989.00;;;26.90
11321;BMP180;5715;48.234;14.320;2023-07-02T05:57:19;97985.00;;;26.70
11321;BMP180;5715;48.234;14.320;2023-07-02T06:00:07;97989.00;;;27.00
11321;BMP180;5715;48.234;14.320;2023-07-02T06:02:55;97989.00;;;26.80
11321;BMP180;5715;48.234;14.320;2023-07-02T06:05:43;97994.00;;;26.90
11321;BMP180;5715;48.234;14.320;2023-07-02T06:08:31;98000.00;;;27.20
11321;BMP180;5715;48.234;14.320;2023-07-02T06:11:19;97999.00;;;27.20
11321;BMP180;5715;48.234;14.320;2023-07-02T06:14:07;98000.00;;;26.80
11321;BMP180;5715;48.234;14.320;2023-07-02T06:16:54;98003.00;;;26.80
11321;BMP180;5715;48.234;14.320;2023-07-02T06:19:45;98021.00;;;26.90
11321;BMP180;5715;48.234;14.320;2023-07-02T06:22:32;98029.00;;;26.70
11321;BMP180;5715;48.234;14.320;2023-07-02T06:25:20;98026.00;;;26.30
11321;BMP180;5715;48.234;14.320;2023-07-02T06:28:09;98033.00;;;25.50
11321;BMP180;5715;48.234;14.320;2023-07-02T06:30:56;98039.00;;;25.80
11321;BMP180;5715;48.234;14.320;2023-07-02T06:33:44;98033.00;;;25.50
11321;BMP180;5715;48.234;14.320;2023-07-02T06:36:32;98033.00;;;25.30
11321;BMP180;5715;48.234;14.320;2023-07-02T06:39:19;98021.00;;;25.20
11321;BMP180;5715;48.234;14.320;2023-07-02T06:42:08;98025.00;;;25.50
11321;BMP180;5715;48.234;14.320;2023-07-02T06:44:56;98035.00;;;25.60
11321;BMP180;5715;48.234;14.320;2023-07-02T06:47:43;98041.00;;;25.50
11321;BMP180;5715;48.234;14.320;2023-07-02T06:50:31;98036.00;;;25.80
11321;BMP180;5715;48.234;14.320;2023-07-02T06:53:18;98035.00;;;26.00
11321;BMP180;5715;48.234;14.320;2023-07-02T06:56:08;98043.00;;;26.20
11321;BMP180;5715;48.234;14.320;2023-07-02T06:58:57;98042.00;;;26.00
11321;BMP180;5715;48.234;14.320;2023-07-02T07:01:44;98043.00;;;26.30
11321;BMP180;5715;48.234;14.320;2023-07-02T07:04:32;98044.00;;;26.90
11321;BMP180;5715;48.234;14.320;2023-07-02T07:07:21;98058.00;;;26.60
11321;BMP180;5715;48.234;14.320;2023-07-02T07:10:09;98057.00;;;26.10
11321;BMP180;5715;48.234;14.320;2023-07-02T07:12:57;98050.00;;;26.20
11321;BMP180;5715;48.234;14.320;2023-07-02T07:15:44;98051.00;;;26.30
11321;BMP180;5715;48.234;14.320;2023-07-02T07:18:32;98034.00;;;26.60
11321;BMP180;5715;48.234;14.320;2023-07-02T07:21:20;98033.00;;;26.70
11321;BMP180;5715;48.234;14.320;2023-07-02T07:24:07;98038.00;;;26.80
11321;BMP180;5715;48.234;14.320;2023-07-02T07:26:55;98037.00;;;26.90
11321;BMP180;5715;48.234;14.320;2023-07-02T07:29:42;98044.00;;;26.50
11321;BMP180;5715;48.234;14.320;2023-07-02T07:32:30;98040.00;;;27.40
11321;BMP180;5715;48.234;14.320;2023-07-02T07:35:20;98038.00;;;27.50
11321;BMP180;5715;48.234;14.320;2023-07-02T07:38:09;98027.00;;;27.70
11321;BMP180;5715;48.234;14.320;2023-07-02T07:40:58;98038.00;;;27.10
11321;BMP180;5715;48.234;14.320;2023-07-02T07:43:45;98040.00;;;26.90
11321;BMP180;5715;48.234;14.320;2023-07-02T07:46:33;98042.00;;;27.10
11321;BMP180;5715;48.234;14.320;2023-07-02T07:49:21;98037.00;;;26.40
11321;BMP180;5715;48.234;14.320;2023-07-02T07:52:09;98046.00;;;26.50
11321;BMP180;5715;48.234;14.320;2023-07-02T07:54:56;98049.00;;;27.10
11321;BMP180;5715;48.234;14.320;2023-07-02T07:57:44;98063.00;;;26.70
11321;BMP180;5715;48.234;14.320;2023-07-02T08:00:31;98064.00;;;26.80
11321;BMP180;5715;48.234;14.320;2023-07-02T08:03:19;98070.00;;;26.60
11321;BMP180;5715;48.234;14.320;2023-07-02T08:06:07;98062.00;;;26.60
11321;BMP180;5715;48.234;14.320;2023-07-02T08:08:56;98074.00;;;27.00
11321;BMP180;5715;48.234;14.320;2023-07-02T08:11:44;98074.00;;;27.10
11321;BMP180;5715;48.234;14.320;2023-07-02T08:14:31;98075.00;;;27.00
11321;BMP180;5715;48.234;14.320;2023-07-02T08:17:19;98069.00;;;27.50
11321;BMP180;5715;48.234;14.320;2023-07-02T08:20:07;98073.00;;;26.90
11321;BMP180;5715;48.234;14.320;2023-07-02T08:22:56;98082.00;;;26.80
11321;BMP180;5715;48.234;14.320;2023-07-02T08:25:44;98077.00;;;27.30
11321;BMP180;5715;48.234;14.320;2023-07-02T08:28:32;98084.00;;;27.30
11321;BMP180;5715;48.234;14.320;2023-07-02T08:31:19;98078.00;;;26.90
11321;BMP180;5715;48.234;14.320;2023-07-02T08:34:07;98095.00;;;27.10
11321;BMP180;5715;48.234;14.320;2023-07-02T08:36:55;98099.00;;;27.40
11321;BMP180;5715;48.234;14.320;2023-07-02T08:39:42;98081.00;;;27.40
11321;BMP180;5715;48.234;14.320;2023-07-02T08:42:32;98085.00;;;27.20
11321;BMP180;5715;48.234;14.320;2023-07-02T08:45:23;98085.00;;;27.30
11321;BMP180;5715;48.234;14.320;2023-07-02T08:48:15;98080.00;;;27.60
11321;BMP180;5715;48.234;14.320;2023-07-02T08:51:03;98087.00;;;27.50
11321;BMP180;5715;48.234;14.320;2023-07-02T08:53:51;98095.00;;;27.20
11321;BMP180;5715;48.234;14.320;2023-07-02T08:56:39;98100.00;;;26.90
11321;BMP180;5715;48.234;14.320;2023-07-02T08:59:27;98095.00;;;27.60
11321;BMP180;5715;48.234;14.320;2023-07-02T09:02:14;98094.00;;;27.90
11321;BMP180;5715;48.234;14.320;2023-07-02T09:05:03;98095.00;;;27.90
11321;BMP180;5715;48.234;14.320;2023-07-02T09:07:51;98098.00;;;28.30
11321;BMP180;5715;48.234;14.320;2023-07-02T09:10:41;98095.00;;;28.10
11321;BMP180;5715;48.234;14.320;2023-07-02T09:13:29;98096.00;;;28.00
11321;BMP180;5715;48.234;14.320;2023-07-02T09:16:33;98095.00;;;28.30
11321;BMP180;5715;48.234;14.320;2023-07-02T09:19:23;98091.00;;;28.00
11321;BMP180;5715;48.234;14.320;2023-07-02T09:22:11;98097.00;;;27.40
11321;BMP180;5715;48.234;14.320;2023-07-02T09:25:03;98104.00;;;28.40
11321;BMP180;5715;48.234;14.320;2023-07-02T09:27:51;98102.00;;;27.80
11321;BMP180;5715;48.234;14.320;2023-07-02T09:30:56;98108.00;;;28.20
11321;BMP180;5715;48.234;14.320;2023-07-02T09:33:44;98108.00;;;28.00
11321;BMP180;5715;48.234;14.320;2023-07-02T09:36:32;98103.00;;;27.60
11321;BMP180;5715;48.234;14.320;2023-07-02T09:39:26;98106.00;;;28.00
11321;BMP180;5715;48.234;14.320;2023-07-02T09:42:14;98118.00;;;27.50
11321;BMP180;5715;48.234;14.320;2023-07-02T09:45:03;98115.00;;;27.10
11321;BMP180;5715;48.234;14.320;2023-07-02T09:47:54;98124.00;;;26.90
11321;BMP180;5715;48.234;14.320;2023-07-02T09:50:46;98130.00;;;26.60
11321;BMP180;5715;48.234;14.320;2023-07-02T09:53:35;98134.00;;;26.40
11321;BMP180;5715;48.234;14.320;2023-07-02T09:56:23;98140.00;;;26.10
11321;BMP180;5715;48.234;14.320;2023-07-02T09:59:10;98145.00;;;26.30
11321;BMP180;5715;48.234;14.320;2023-07-02T10:01:58;98146.00;;;25.80
11321;BMP180;5715;48.234;14.320;2023-07-02T10:04:47;98150.00;;;26.00
11321;BMP180;5715;48.234;14.320;2023-07-02T10:07:42;98147.00;;;25.90
11321;BMP180;5715;48.234;14.320;2023-07-02T10:10:31;98144.00;;;26.10
11321;BMP180;5715;48.234;14.320;2023-07-02T10:13:28;98143.00;;;25.90
11321;BMP180;5715;48.234;14.320;2023-07-02T10:16:15;98137.00;;;26.20
11321;BMP180;5715;48.234;14.320;2023-07-02T10:19:12;98141.00;;;26.10
11321;BMP180;5715;48.234;14.320;2023-07-02T10:22:02;98147.00;;;25.80
11321;BMP180;5715;48.234;14.320;2023-07-02T10:24:58;98149.00;;;26.10
11321;BMP180;5715;48.234;14.320;2023-07-02T10:27:48;98154.00;;;26.50
11321;BMP180;5715;48.234;14.320;2023-07-02T10:30:38;98154.00;;;26.10
11321;BMP180;5715;48.234;14.320;2023-07-02T10:33:26;98152.00;;;26.20
11321;BMP180;5715;48.234;14.320;2023-07-02T10:36:21;98152.00;;;26.50
11321;BMP180;5715;48.234;14.320;2023-07-02T10:39:10;98159.00;;;26.50
11321;BMP180;5715;48.234;14.320;2023-07-02T10:42:08;98166.00;;;26.20
11321;BMP180;5715;48.234;14.320;2023-07-02T10:44:57;98166.00;;;26.80
11321;BMP180;5715;48.234;14.320;2023-07-02T10:47:45;98170.00;;;25.90
11321;BMP180;5715;48.234;14.320;2023-07-02T10:50:34;98182.00;;;25.90
11321;BMP180;5715;48.234;14.320;2023-07-02T10:53:21;98183.00;;;25.70
11321;BMP180;5715;48.234;14.320;2023-07-02T10:56:16;98189.00;;;25.40
11321;BMP180;5715;48.234;14.320;2023-07-02T10:59:04;98183.00;;;25.70
11321;BMP180;5715;48.234;14.320;2023-07-02T11:01:52;98183.00;;;25.20
11321;BMP180;5715;48.234;14.320;2023-07-02T11:04:40;98183.00;;;25.10
11321;BMP180;5715;48.234;14.320;2023-07-02T11:07:28;98189.00;;;25.20
11321;BMP180;5715;48.234;14.320;2023-07-02T11:10:19;98185.00;;;25.20
11321;BMP180;5715;48.234;14.320;2023-07-02T11:13:19;98187.00;;;24.60
11321;BMP180;5715;48.234;14.320;2023-07-02T11:16:23;98193.00;;;24.80
11321;BMP180;5715;48.234;14.320;2023-07-02T11:19:13;98198.00;;;25.20
11321;BMP180;5715;48.234;14.320;2023-07-02T11:22:01;98195.00;;;24.90
11321;BMP180;5715;48.234;14.320;2023-07-02T11:24:49;98207.00;;;25.60
11321;BMP180;5715;48.234;14.320;2023-07-02T11:27:37;98203.00;;;25.60
11321;BMP180;5715;48.234;14.320;2023-07-02T11:30:25;98208.00;;;25.50
11321;BMP180;5715;48.234;14.320;2023-07-02T11:33:13;98208.00;;;25.20
11321;BMP180;5715;48.234;14.320;2023-07-02T11:36:00;98208.00;;;25.30
11321;BMP180;5715;48.234;14.320;2023-07-02T11:38:49;98206.00;;;25.40
11321;BMP180;5715;48.234;14.320;2023-07-02T11:41:43;98209.00;;;25.50
11321;BMP180;5715;48.234;14.320;2023-07-02T11:44:31;98210.00;;;25.60
11321;BMP180;5715;48.234;14.320;2023-07-02T11:47:18;98208.00;;;25.70
11321;BMP180;5715;48.234;14.320;2023-07-02T11:50:07;98212.00;;;25.80
11321;BMP180;5715;48.234;14.320;2023-07-02T11:53:12;98207.00;;;25.30
11321;BMP180;5715;48.234;14.320;2023-07-02T11:56:00;98201.00;;;25.50
11321;BMP180;5715;48.234;14.320;2023-07-02T11:58:47;98195.00;;;25.20
11321;BMP180;5715;48.234;14.320;2023-07-02T12:01:35;98191.00;;;25.20
11321;BMP180;5715;48.234;14.320;2023-07-02T12:04:23;98188.00;;;25.60
11321;BMP180;5715;48.234;14.320;2023-07-02T12:07:10;98191.00;;;25.90
11321;BMP180;5715;48.234;14.320;2023-07-02T12:10:00;98186.00;;;26.50
11321;BMP180;5715;48.234;14.320;2023-07-02T12:12:48;98190.00;;;27.10
11321;BMP180;5715;48.234;14.320;2023-07-02T12:15:36;98184.00;;;26.70
11321;BMP180;5715;48.234;14.320;2023-07-02T12:18:23;98188.00;;;27.40
11321;BMP180;5715;48.234;14.320;2023-07-02T12:21:11;98177.00;;;27.60
11321;BMP180;5715;48.234;14.320;2023-07-02T12:23:58;98179.00;;;27.30
11321;BMP180;5715;48.234;14.320;2023-07-02T12:26:46;98175.00;;;27.50
11321;BMP180;5715;48.234;14.320;2023-07-02T12:29:33;98177.00;;;27.10
11321;BMP180;5715;48.234;14.320;2023-07-02T12:32:21;98174.00;;;27.20
11321;BMP180;5715;48.234;14.320;2023-07-02T12:35:09;98181.00;;;27.10
11321;BMP180;5715;48.234;14.320;2023-07-02T12:37:56;98185.00;;;27.60
11321;BMP180;5715;48.234;14.320;2023-07-02T12:40:45;98180.00;;;27.40
11321;BMP180;5715;48.234;14.320;2023-07-02T12:43:33;98174.00;;;27.40
11321;BMP180;5715;48.234;14.320;2023-07-02T12:46:20;98171.00;;;27.30
11321;BMP180;5715;48.234;14.320;2023-07-02T12:49:08;98175.00;;;27.30
11321;BMP180;5715;48.234;14.320;2023-07-02T12:51:55;98180.00;;;27.60
11321;BMP180;5715;48.234;14.320;2023-07-02T12:54:43;98165.00;;;27.80
11321;BMP180;5715;48.234;14.320;2023-07-02T12:57:31;98169.00;;;27.70
11321;BMP180;5715;48.234;14.320;2023-07-02T13:00:18;98172.00;;;27.30
11321;BMP180;5715;48.234;14.320;2023-07-02T13:03:14;98164.00;;;28.00
11321;BMP180;5715;48.234;14.320;2023-07-02T13:06:04;98172.00;;;27.60
11321;BMP180;5715;48.234;14.320;2023-07-02T13:08:52;98168.00;;;27.70
11321;BMP180;5715;48.234;14.320;2023-07-02T13:11:40;98169.00;;;27.60
11321;BMP180;5715;48.234;14.320;2023-07-02T13:14:27;98170.00;;;27.20
11321;BMP180;5715;48.234;14.320;2023-07-02T13:17:18;98158.00;;;27.40
11321;BMP180;5715;48.234;14.320;2023-07-02T13:20:06;98163.00;;;27.10
11321;BMP180;5715;48.234;14.320;2023-07-02T13:22:54;98156.00;;;27.70
11321;BMP180;5715;48.234;14.320;2023-07-02T13:25:41;98154.00;;;28.50
11321;BMP180;5715;48.234;14.320;2023-07-02T13:28:29;98150.00;;;28.40
11321;BMP180;5715;48.234;14.320;2023-07-02T13:31:17;98151.00;;;28.50
11321;BMP180;5715;48.234;14.320;2023-07-02T13:34:04;98145.00;;;28.20
11321;BMP180;5715;48.234;14.320;2023-07-02T13:36:52;98141.00;;;28.80
11321;BMP180;5715;48.234;14.320;2023-07-02T13:39:40;98143.00;;;29.20
11321;BMP180;5715;48.234;14.320;2023-07-02T13:42:27;98145.00;;;29.20
11321;BMP180;5715;48.234;14.320;2023-07-02T13:45:15;98138.00;;;29.00
11321;BMP180;5715;48.234;14.320;2023-07-02T13:48:03;98130.00;;;29.30
11321;BMP180;5715;48.234;14.320;2023-07-02T13:50:52;98136.00;;;29.40
11321;BMP180;5715;48.234;14.320;2023-07-02T13:53:40;98135.00;;;29.40
11321;BMP180;5715;48.234;14.320;2023-07-02T13:56:27;98137.00;;;29.90
11321;BMP180;5715;48.234;14.320;2023-07-02T13:59:17;98133.00;;;29.30
11321;BMP180;5715;48.234;14.320;2023-07-02T14:02:05;98132.00;;;29.70
11321;BMP180;5715;48.234;14.320;2023-07-02T14:04:53;98127.00;;;30.10
11321;BMP180;5715;48.234;14.320;2023-07-02T14:07:41;98122.00;;;30.30
11321;BMP180;5715;48.234;14.320;2023-07-02T14:10:29;98125.00;;;30.50
11321;BMP180;5715;48.234;14.320;2023-07-02T14:13:17;98121.00;;;30.80
11321;BMP180;5715;48.234;14.320;2023-07-02T14:16:04;98112.00;;;30.80
11321;BMP180;5715;48.234;14.320;2023-07-02T14:18:52;98122.00;;;31.20
11321;BMP180;5715;48.234;14.320;2023-07-02T14:21:39;98115.00;;;31.10
11321;BMP180;5715;48.234;14.320;2023-07-02T14:24:27;98108.00;;;31.30
11321;BMP180;5715;48.234;14.320;2023-07-02T14:27:17;98108.00;;;31.10
11321;BMP180;5715;48.234;14.320;2023-07-02T14:30:06;98100.00;;;30.60
11321;BMP180;5715;48.234;14.320;2023-07-02T14:32:55;98108.00;;;30.30
11321;BMP180;5715;48.234;14.320;2023-07-02T14:35:42;98103.00;;;31.00
11321;BMP180;5715;48.234;14.320;2023-07-02T14:38:30;98100.00;;;31.50
11321;BMP180;5715;48.234;14.320;2023-07-02T14:41:18;98089.00;;;31.40
11321;BMP180;5715;48.234;14.320;2023-07-02T14:44:05;98095.00;;;30.70
11321;BMP180;5715;48.234;14.320;2023-07-02T14:46:53;98097.00;;;31.00
11321;BMP180;5715;48.234;14.320;2023-07-02T14:49:41;98099.00;;;31.20
11321;BMP180;5715;48.234;14.320;2023-07-02T14:52:28;98096.00;;;31.60
11321;BMP180;5715;48.234;14.320;2023-07-02T14:55:16;98087.00;;;31.30
11321;BMP180;5715;48.234;14.320;2023-07-02T14:58:03;98097.00;;;31.00
11321;BMP180;5715;48.234;14.320;2023-07-02T15:00:55;98096.00;;;30.60
11321;BMP180;5715;48.234;14.320;2023-07-02T15:03:43;98093.00;;;31.10
11321;BMP180;5715;48.234;14.320;2023-07-02T15:06:32;98094.00;;;30.20
11321;BMP180;5715;48.234;14.320;2023-07-02T15:09:20;98090.00;;;30.20
11321;BMP180;5715;48.234;14.320;2023-07-02T15:12:08;98087.00;;;30.60
11321;BMP180;5715;48.234;14.320;2023-07-02T15:14:55;98085.00;;;30.60
11321;BMP180;5715;48.234;14.320;2023-07-02T15:17:43;98080.00;;;31.50
11321;BMP180;5715;48.234;14.320;2023-07-02T15:20:31;98082.00;;;30.80
11321;BMP180;5715;48.234;14.320;2023-07-02T15:23:20;98076.00;;;30.50
11321;BMP180;5715;48.234;14.320;2023-07-02T15:26:08;98079.00;;;30.90
11321;BMP180;5715;48.234;14.320;2023-07-02T15:28:56;98077.00;;;30.70
11321;BMP180;5715;48.234;14.320;2023-07-02T15:31:43;98080.00;;;31.20
11321;BMP180;5715;48.234;14.320;2023-07-02T15:34:33;98074.00;;;31.30
11321;BMP180;5715;48.234;14.320;2023-07-02T15:37:23;98080.00;;;31.50
11321;BMP180;5715;48.234;14.320;2023-07-02T15:40:11;98081.00;;;31.00
11321;BMP180;5715;48.234;14.320;2023-07-02T15:42:59;98075.00;;;31.70
11321;BMP180;5715;48.234;14.320;2023-07-02T15:45:47;98086.00;;;31.30
11321;BMP180;5715;48.234;14.320;2023-07-02T15:48:35;98084.00;;;30.90
11321;BMP180;5715;48.234;14.320;2023-07-02T15:51:22;98070.00;;;30.90
11321;BMP180;5715;48.234;14.320;2023-07-02T15:54:12;98062.00;;;30.60
11321;BMP180;5715;48.234;14.320;2023-07-02T15:57:00;98076.00;;;31.60
11321;BMP180;5715;48.234;14.320;2023-07-02T15:59:47;98075.00;;;31.60
11321;BMP180;5715;48.234;14.320;2023-07-02T16:02:35;98065.00;;;31.80
11321;BMP180;5715;48.234;14.320;2023-07-02T16:05:23;98069.00;;;31.30
11321;BMP180;5715;48.234;14.320;2023-07-02T16:08:12;98060.00;;;30.50
11321;BMP180;5715;48.234;14.320;2023-07-02T16:10:59;98066.00;;;30.90